Terminal Aerodrome Forecast
Issued by NWS

Home | Current Version | Previous Version | Text Only | Print | Product List | Glossary On
Versions: 1 2 3 4 5 6 7 8 9 10 11 12 13 14 15 16
854
FTUS42 TJSJ 302339
TAFKPK
TAF
TKPK 302339Z 3100/3124 05018KT P6SM VCTS FEW014CB SCT020
     FM310200 07015G30KT P6SM SHRA VCTS FEW015 BKN020CB BKN040
     FM311300 11015G25KT P6SM VCTS BKN020CB BKN040
      AMD NOT SKED 3102/3111=

USA.gov is the U.S. government's official web portal to all federal, state and local government web resources and services.